createdAt,value
2022-10-14T00:04:05.434Z,11.47
2022-10-14T00:09:26.249Z,11.18
2022-10-14T00:14:48.383Z,11.13
2022-10-14T00:20:09.519Z,11.12
2022-10-14T00:25:30.495Z,11.24
2022-10-14T00:31:01.567Z,11.31
2022-10-14T00:36:24.504Z,11.38
2022-10-14T00:41:45.548Z,11.41
2022-10-14T00:47:06.335Z,11.44
2022-10-14T00:52:27.659Z,11.51
2022-10-14T00:57:48.608Z,11.61
2022-10-14T01:03:17.342Z,11.77
2022-10-14T01:08:47.105Z,11.81
2022-10-14T01:14:28.087Z,11.68
2022-10-14T01:20:38.385Z,11.66
2022-10-14T01:26:10.960Z,11.89
2022-10-14T01:31:35.646Z,11.78
2022-10-14T01:37:09.308Z,11.51
2022-10-14T01:42:38.355Z,11.53
2022-10-14T01:48:00.802Z,11.54
2022-10-14T01:53:49.002Z,11.62
2022-10-14T01:59:13.565Z,11.50
2022-10-14T02:04:34.346Z,11.38
2022-10-14T02:10:01.076Z,11.31
2022-10-14T02:15:56.217Z,11.41
2022-10-14T02:21:24.731Z,11.38
2022-10-14T02:26:47.514Z,11.34
2022-10-14T02:32:11.173Z,11.39
2022-10-14T02:37:33.726Z,11.44
2022-10-14T02:42:54.246Z,11.43
2022-10-14T02:48:15.264Z,11.35
2022-10-14T02:53:35.887Z,11.32
2022-10-14T02:58:56.541Z,11.37
2022-10-14T03:04:17.039Z,11.35
2022-10-14T03:09:37.696Z,11.30
2022-10-14T03:15:00.495Z,11.22
2022-10-14T03:20:21.140Z,11.17
2022-10-14T03:25:46.791Z,11.22
2022-10-14T03:31:21.132Z,11.20
2022-10-14T03:37:05.084Z,11.11
2022-10-14T03:42:28.157Z,11.16
2022-10-14T03:47:49.367Z,11.15
2022-10-14T03:53:09.948Z,11.08
2022-10-14T03:58:31.102Z,11.05
2022-10-14T04:03:58.257Z,11.06
2022-10-14T04:09:21.565Z,11.06
2022-10-14T04:14:42.964Z,11.09
2022-10-14T04:20:05.755Z,11.05
2022-10-14T04:25:27.321Z,10.99
2022-10-14T04:30:56.087Z,11.11
2022-10-14T04:36:21.852Z,11.23
2022-10-14T04:41:43.466Z,11.28
2022-10-14T04:47:09.133Z,11.24
2022-10-14T04:52:31.703Z,11.28
2022-10-14T04:58:01.737Z,11.20
2022-10-14T05:03:29.995Z,11.11
2022-10-14T05:08:52.598Z,11.14
2022-10-14T05:14:14.070Z,11.21
2022-10-14T05:19:37.203Z,11.14
2022-10-14T05:24:57.877Z,11.23
2022-10-14T05:30:18.894Z,11.82
2022-10-14T05:35:58.703Z,11.56
2022-10-14T05:41:22.221Z,11.40
2022-10-14T05:46:43.205Z,11.43
2022-10-14T05:52:04.780Z,11.34
2022-10-14T05:57:28.392Z,11.28
2022-10-14T06:02:49.173Z,11.20
2022-10-14T06:08:12.008Z,11.18
2022-10-14T06:13:32.959Z,11.13
2022-10-14T06:18:54.665Z,11.16
2022-10-14T06:24:16.410Z,11.19
2022-10-14T06:29:40.140Z,11.33
2022-10-14T06:35:01.138Z,11.50
2022-10-14T06:40:21.842Z,11.36
2022-10-14T06:45:42.496Z,11.31
2022-10-14T06:51:03.702Z,11.38
2022-10-14T06:56:24.430Z,11.40
2022-10-14T07:01:45.126Z,11.47
2022-10-14T07:07:07.190Z,11.57
2022-10-14T07:12:28.190Z,11.65
2022-10-14T07:17:48.831Z,11.77
2022-10-14T07:23:09.790Z,11.78
2022-10-14T07:28:30.529Z,11.74
2022-10-14T07:33:51.457Z,11.69
2022-10-14T07:39:12.340Z,11.71
2022-10-14T07:44:33.500Z,11.76
2022-10-14T07:49:54.429Z,11.72
2022-10-14T07:55:15.088Z,11.81
2022-10-14T08:00:37.494Z,11.96
2022-10-14T08:06:03.259Z,12.18
2022-10-14T08:11:26.943Z,12.26
2022-10-14T08:16:48.221Z,12.32
2022-10-14T08:22:09.755Z,12.31
2022-10-14T08:27:30.788Z,12.33
2022-10-14T08:32:51.418Z,12.44
2022-10-14T08:38:12.206Z,12.51
2022-10-14T08:44:13.345Z,12.64
2022-10-14T08:49:38.641Z,12.66
2022-10-14T08:55:05.345Z,12.74
2022-10-14T09:00:29.987Z,12.73
2022-10-14T09:05:58.727Z,12.74
2022-10-14T09:11:22.225Z,12.73
2022-10-14T09:16:50.376Z,12.74
2022-10-14T09:22:15.666Z,12.81
2022-10-14T09:27:38.006Z,12.91
2022-10-14T09:32:59.975Z,12.92
2022-10-14T09:38:21.564Z,12.94
2022-10-14T09:44:22.501Z,13.04
2022-10-14T09:49:47.078Z,13.06
2022-10-14T09:55:18.916Z,13.05
2022-10-14T10:00:40.631Z,13.03
2022-10-14T10:06:09.379Z,13.13
2022-10-14T10:11:38.288Z,13.09
2022-10-14T10:17:08.419Z,13.03
2022-10-14T10:22:34.157Z,13.09
2022-10-14T10:27:58.431Z,13.16
2022-10-14T10:33:26.472Z,13.31
2022-10-14T10:39:06.002Z,13.43
2022-10-14T10:44:58.868Z,13.43
2022-10-14T10:50:37.040Z,13.57
2022-10-14T10:56:04.432Z,13.62
2022-10-14T11:02:03.839Z,13.77
2022-10-14T11:07:43.101Z,14.01
2022-10-14T11:13:35.371Z,14.03
2022-10-14T11:19:14.677Z,14.05
2022-10-14T11:24:58.693Z,14.27
2022-10-14T11:30:32.607Z,14.29
2022-10-14T11:36:31.551Z,14.33
2022-10-14T11:42:01.554Z,14.48
2022-10-14T11:47:34.772Z,14.60
2022-10-14T11:53:09.956Z,14.59
2022-10-14T11:58:35.190Z,14.81
2022-10-14T12:04:10.895Z,14.99
2022-10-14T12:09:39.139Z,14.93
2022-10-14T12:15:17.626Z,14.86
2022-10-14T12:20:51.750Z,14.77
2022-10-14T12:26:15.791Z,14.66
2022-10-14T12:31:39.151Z,14.62
2022-10-14T12:37:00.562Z,14.63
2022-10-14T12:42:22.352Z,14.74
2022-10-14T12:47:44.150Z,14.83
2022-10-14T12:53:15.944Z,14.92
2022-10-14T12:59:01.275Z,14.99
2022-10-14T13:04:22.275Z,15.02
2022-10-14T13:09:44.859Z,15.05
2022-10-14T13:15:48.727Z,15.17
2022-10-14T13:21:31.176Z,15.14
2022-10-14T13:26:54.814Z,15.18
2022-10-14T13:32:31.223Z,15.19
2022-10-14T13:38:02.146Z,15.20
2022-10-14T13:43:37.323Z,15.23
2022-10-14T13:49:05.416Z,15.28
2022-10-14T13:54:28.716Z,15.29
2022-10-14T14:00:37.286Z,15.33
2022-10-14T14:05:36.241Z,15.29
2022-10-14T14:11:18.961Z,15.28
2022-10-14T14:22:21.039Z,15.33
2022-10-14T14:27:49.284Z,15.34
2022-10-14T14:33:19.655Z,15.29
2022-10-14T14:38:51.724Z,15.27
2022-10-14T14:44:25.342Z,15.18
2022-10-14T14:49:54.088Z,15.05
2022-10-14T14:55:34.696Z,14.97
2022-10-14T15:00:56.325Z,15.04
2022-10-14T15:06:18.198Z,14.97
2022-10-14T15:11:58.001Z,14.94
2022-10-14T15:17:33.467Z,14.91
2022-10-14T15:22:54.296Z,14.90
2022-10-14T15:28:31.898Z,14.84
2022-10-14T15:33:53.404Z,14.79
2022-10-14T15:39:14.283Z,14.83
2022-10-14T15:44:35.009Z,14.81
2022-10-14T15:49:57.203Z,14.84
2022-10-14T15:55:23.083Z,14.90
2022-10-14T16:00:47.430Z,14.93
2022-10-14T16:06:09.099Z,14.89
2022-10-14T16:11:31.578Z,14.85
2022-10-14T16:16:52.853Z,14.71
2022-10-14T16:22:14.845Z,14.61
2022-10-14T16:27:35.962Z,14.52
2022-10-14T16:32:57.037Z,14.46
2022-10-14T16:38:17.591Z,14.28
2022-10-14T16:43:38.623Z,14.18
2022-10-14T16:48:59.629Z,14.13
2022-10-14T16:54:21.996Z,14.09
2022-10-14T16:59:42.696Z,14.01
2022-10-14T17:05:03.448Z,13.94
2022-10-14T17:10:25.248Z,14.09
2022-10-14T17:15:45.922Z,14.17
2022-10-14T17:21:09.006Z,14.17
2022-10-14T17:26:31.551Z,14.02
2022-10-14T17:31:52.423Z,13.93
2022-10-14T17:37:13.217Z,13.82
2022-10-14T17:42:34.082Z,13.70
2022-10-14T17:47:56.568Z,13.61
2022-10-14T17:53:17.547Z,13.52
2022-10-14T17:58:39.180Z,13.40
2022-10-14T18:04:01.021Z,13.32
2022-10-14T18:09:21.758Z,13.27
2022-10-14T18:14:42.531Z,13.31
2022-10-14T18:20:05.501Z,13.31
2022-10-14T18:25:26.515Z,13.27
2022-10-14T18:30:47.144Z,13.23
2022-10-14T18:36:11.113Z,13.13
2022-10-14T18:41:32.663Z,13.05
2022-10-14T18:46:55.847Z,13.02
2022-10-14T18:52:18.907Z,13.02
2022-10-14T18:57:39.574Z,13.01
2022-10-14T19:03:00.043Z,13.01
2022-10-14T19:08:22.920Z,12.98
2022-10-14T19:13:45.413Z,12.90
2022-10-14T19:19:16.573Z,12.84
2022-10-14T19:24:37.929Z,12.84
2022-10-14T19:29:58.628Z,12.75
2022-10-14T19:35:21.810Z,12.70
2022-10-14T19:40:42.556Z,12.67
2022-10-14T19:46:09.312Z,12.60
2022-10-14T19:51:31.329Z,12.59
2022-10-14T19:56:52.250Z,12.63
2022-10-14T20:02:15.106Z,12.60
2022-10-14T20:07:35.693Z,12.62
2022-10-14T20:12:56.437Z,12.65
2022-10-14T20:18:18.522Z,12.71
2022-10-14T20:23:39.703Z,12.74
2022-10-14T20:29:00.375Z,12.73
2022-10-14T20:34:21.078Z,12.68
2022-10-14T20:39:41.698Z,12.63
2022-10-14T20:45:02.617Z,12.62
2022-10-14T20:50:23.630Z,12.61
2022-10-14T20:55:44.426Z,12.58
2022-10-14T21:01:16.508Z,12.56
2022-10-14T21:06:38.922Z,12.55
2022-10-14T21:11:59.940Z,12.56
2022-10-14T21:17:20.807Z,12.55
2022-10-14T21:22:41.687Z,12.54
2022-10-14T21:28:02.293Z,12.50
2022-10-14T21:33:22.844Z,12.42
2022-10-14T21:38:43.598Z,12.41
2022-10-14T21:44:05.228Z,12.39
2022-10-14T21:49:26.572Z,12.36
2022-10-14T21:54:47.225Z,12.36
2022-10-14T22:00:09.317Z,12.39
2022-10-14T22:05:30.026Z,12.39
2022-10-14T22:10:50.568Z,12.41
2022-10-14T22:16:13.540Z,12.38
2022-10-14T22:21:36.716Z,12.34
2022-10-14T22:26:57.666Z,12.25
2022-10-14T22:32:18.272Z,12.20
2022-10-14T22:37:38.838Z,12.20
2022-10-14T22:42:59.483Z,12.25
2022-10-14T22:48:20.057Z,12.27
2022-10-14T22:53:41.852Z,12.32
2022-10-14T22:59:05.747Z,12.32
2022-10-14T23:04:26.461Z,12.30
2022-10-14T23:09:47.259Z,12.39
2022-10-14T23:15:08.413Z,12.44
2022-10-14T23:20:29.373Z,12.52
2022-10-14T23:25:50.325Z,12.52
2022-10-14T23:31:13.611Z,12.43
2022-10-14T23:36:34.659Z,12.36
2022-10-14T23:41:55.195Z,12.32
2022-10-14T23:47:15.801Z,12.32
2022-10-14T23:52:36.298Z,12.33
2022-10-14T23:57:56.841Z,12.36
